Station info - map view · info · telemetry · weather · raw · status · beacons · messages · bulletins · browse · moving · my account
Callsign, ship name or locator: Clear       
It is possible to search using wildcards (*?) after a prefix. Example: OH*
APRS station KF8IU-9 - show graphs
Map loading...
Comment: 147.180MHz C136 +060TM-D710GA
Mic-E message: Special
Location: 39°09.76' N 86°35.02' W - locator EM69QD99XA - show map - static map
3.1 miles West bearing 267° from Bloomington, Monroe County, Indiana, United States [?]
5.4 miles Southeast bearing 156° from Ellettsville, Monroe County, Indiana, United States
47.6 miles Southwest bearing 209° from Indianapolis, Marion County, Indiana, United States
76.9 miles Northwest bearing 325° from Louisville, Jefferson County, Kentucky, United States
Last position: 2018-02-23 18:23:25 EST (59m5s ago)
2018-02-23 18:23:25 EST local time at Bloomington, United States [?]
Altitude: 846 ft
Course: 172°
Speed: 28 MPH
Device: Kenwood: TM-D710 (rig)
Last path: KF8IU-9>3Y0Y7V via WIDE1-1,WIDE2-1,qAR,WB9TLH-11 (good)
Positions stored: 39390
Packet rate: 99 seconds between packets on average during 593 seconds.
Other SSIDs: KF8IU KF8IU-15 KF8IU-5
Stations near current position of KF8IU-9 - show more
callsign distance last heard - EST      callsign distance last heard - EST
KB9SGN1.4 miles 46°2018-02-23 19:11:17 443.775+B1.4 miles 46°2018-02-23 19:05:46
K9TEM1.6 miles 246°2018-02-14 18:31:02 147.180-I3.2 miles 84°2018-02-23 19:03:51
KF8IU-53.2 miles 84°2018-02-12 18:46:48 W9YM-93.4 miles 128°2018-02-23 16:11:16
KB9VJC-Y3.5 miles 18°2018-02-06 15:15:36 K7JOE B3.6 miles 73°2018-02-15 20:34:04
K7JOE-B3.6 miles 73°2018-02-15 20:34:14 K9IU B3.6 miles 72°2018-02-14 22:00:32
K9IU-B3.6 miles 72°2018-02-14 22:00:42 K9IU C3.6 miles 72°2018-02-21 20:21:16
K9IU-C3.6 miles 72°2018-02-21 20:21:26 146.640-B3.9 miles 81°2018-02-23 19:04:41
K9DFW4.3 miles 157°2018-02-08 15:46:27 KB9QJK-54.3 miles 327°2018-02-22 17:26:31
WB9TLH-124.5 miles 78°2018-02-23 19:18:43 WB9TJH-124.5 miles 78°2018-02-12 06:37:39
WB9TLB-124.5 miles 78°2018-02-19 13:37:50 DW49144.5 miles 102°2018-02-23 19:14:59
Stations which heard KF8IU-9 directly on radio –
callsign pkts first heard - EST last heard longest (tx => rx) longest at - EST
WB9TLH-11 45 2018-01-31 23:29:57 2018-02-23 18:23:25 EM69SI > EM69QB 20.8 miles 200° 2018-01-31 23:29:57
KB9YVI-11 5 2018-02-21 18:28:35 2018-02-21 18:39:04 EM69RE > EM69QF 4.7 miles 325° 2018-02-21 18:39:04
N9UMJ-10 32 2018-01-31 23:35:33 2018-02-23 07:41:44 EM69RG > EM68QR 38.4 miles 191° 2018-01-31 23:35:33
N9AMN-2 26 2018-01-31 22:41:17 2018-01-31 23:15:08 EM69TL > EM69WR 18.7 miles 34° 2018-01-31 23:15:08
W9GO-3 1 2018-01-31 21:37:11 2018-01-31 21:37:11 EN70FK > EN60WL 32.2 miles 275° 2018-01-31 21:37:11
N9AMN-3 13 2018-01-31 22:10:14 2018-01-31 22:53:40 EN70FC > EM69XV 29.0 miles 240° 2018-01-31 22:10:14
W8DF-5 14 2018-01-31 19:06:55 2018-01-31 19:25:17 EN72OM > EN72KG 23.9 miles 227° 2018-01-31 19:06:55
W9ICE-10 34 2018-01-31 22:13:17 2018-01-31 23:17:08 EN70EB > EM69VV 35.0 miles 249° 2018-01-31 22:13:17
LANSNG 1 2018-01-31 19:04:55 2018-01-31 19:04:55 EN72ON > EN72RS 20.0 miles 48° 2018-01-31 19:04:55
CHLSEA 1 2018-01-31 19:01:25 2018-01-31 19:01:25 EN72OO > EN72XI 39.0 miles 114° 2018-01-31 19:01:25
WB9TLH-12 88 2018-01-31 23:39:28 2018-02-23 18:19:37 EM69QD > EM69RE 6.4 miles 65° 2018-02-20 22:04:05
KC9MWQ-1 19 2018-01-31 21:17:26 2018-01-31 22:08:14 EN70FD > EN70EO 31.0 miles 351° 2018-01-31 22:08:14
KD9AKR-10 2 2018-01-31 22:30:40 2018-01-31 22:37:09 EM79AX > EM69UR 24.1 miles 221° 2018-01-31 22:30:40
WE9MA-3 4 2018-01-31 22:00:14 2018-01-31 22:24:40 EN70FH > EM79HW 27.3 miles 159° 2018-01-31 22:00:14
W9INX-1 9 2018-01-31 20:37:55 2018-01-31 20:57:02 EN71LI > EN71KE 13.6 miles 183° 2018-01-31 20:37:55
KE9YM-3 2 2018-01-31 23:19:44 2018-02-21 18:41:30 EM69TK > EM69UE 18.9 miles 168° 2018-01-31 23:19:44
N9LOY-2 7 2018-01-31 22:27:39 2018-01-31 22:38:29 EM69XV > EM79AW 8.3 miles 57° 2018-01-31 22:38:29
K3HTK-1 1 2018-01-31 22:22:10 2018-01-31 22:22:10 EN70CA > EN60XA 12.9 miles 271° 2018-01-31 22:22:10
W9SMJ-1 9 2018-01-31 21:33:11 2018-01-31 22:26:39 EN70EB > EN60XJ 34.6 miles 313° 2018-01-31 22:13:13
KA9DTZ-1 16 2018-01-31 21:04:01 2018-01-31 21:23:25 EN70GQ > EN70GV 13.8 miles 357° 2018-01-31 21:23:25
KB8IUO 6 2018-01-31 20:18:49 2018-01-31 20:42:23 EN71LM > EN71PI 20.3 miles 128° 2018-01-31 20:18:49
N9WNH-8 2 2018-01-31 20:56:02 2018-01-31 21:05:02 EN70IX > EN71HG 21.6 miles 346° 2018-01-31 21:05:02
K9NDU-15 1 2018-01-31 20:19:49 2018-01-31 20:19:49 EN71LM > EN71IL 10.5 miles 261° 2018-01-31 20:19:49

Only position packets which were originated by the station are shown here. The range statistics show some extra long hops, because some digipeaters do not correctly add themselves to the digipeater path. Please check the raw packets.
About this site
This page shows real-time information collected from the Automatic Position Reporting System Internet network (APRS-IS). APRS is used by amateur (ham) radio operators to transmit real-time position information, weather data, telemetry and messages over the radio. A vehicle equipped with a GPS receiver, a VHF transmitter or HF transceiver and a small computer device called a tracker transmits it's location, speed and course in a small data packet, which is then received by a nearby iGate receiving site which forwards the packet on the Internet. Systems connected to the Internet can send information on the APRS-IS without a radio transmitter, or collect and display information transmitted anywhere in the world.
FAQ · Blog · Discussion group · Linking to aprs.fi · AIS sites · Service status · Database statistics · Advertising on aprs.fi · Technical details · API · Change log · Planned changes · Credits and thanks · Terms Of Service · iPhone/iPad APRS